Time;durP1;ratioP1;P1;durP2;ratioP2;P2;SDS_P1;SDS_P2;PMS_P1;PMS_P2;Temp;Humidity;BMP_temperature;BMP_pressure;BME280_temperature;BME280_humidity;BME280_pressure;Samples;Min_cycle;Max_cycle;Signal;HPM_P1;HPM_P2
2023/03/02 00:00:00;;;;;;;11.50;10.25;;;;;19.80;101246.00;;;;2071391;28;20222;-77
2023/03/02 00:01:03;;;;;;;13.07;10.73;;;;;19.80;101239.00;;;;2072063;28;20221;-77
2023/03/02 00:02:12;;;;;;;11.50;10.30;;;;;19.70;101249.00;;;;2072098;28;20218;-77
2023/03/02 00:03:13;;;;;;;12.02;9.95;;;;;19.70;101205.00;;;;2071698;28;20244;-77
2023/03/02 00:04:20;;;;;;;13.90;11.53;;;;;19.70;101246.00;;;;2063830;28;20213;-77
2023/03/02 00:05:20;;;;;;;12.27;10.55;;;;;19.70;101244.00;;;;2064581;28;20211;-76
2023/03/02 00:06:20;;;;;;;11.40;9.40;;;;;19.70;101249.00;;;;2071960;28;20554;-76
2023/03/02 00:07:31;;;;;;;12.00;10.50;;;;;19.70;101216.00;;;;2072636;28;20226;-76
2023/03/02 00:08:31;;;;;;;12.32;9.48;;;;;19.70;101246.00;;;;2071651;28;20262;-76
2023/03/02 00:09:32;;;;;;;12.27;11.00;;;;;19.70;101212.00;;;;2071856;28;20222;-76
2023/03/02 00:10:32;;;;;;;11.13;9.93;;;;;19.60;101239.00;;;;2072671;28;20222;-77
2023/03/02 00:11:33;;;;;;;10.63;9.33;;;;;19.70;101235.00;;;;2055682;28;20224;-76
2023/03/02 00:12:33;;;;;;;12.77;10.33;;;;;19.60;101195.00;;;;2047727;28;20228;-76
2023/03/02 00:13:34;;;;;;;11.57;9.70;;;;;19.60;101251.00;;;;2063840;28;20214;-76
2023/03/02 00:14:34;;;;;;;12.40;9.77;;;;;19.60;101250.00;;;;2071985;28;20214;-76
2023/03/02 00:15:34;;;;;;;11.33;9.97;;;;;19.60;101252.00;;;;2072639;28;20272;-76
2023/03/02 00:16:35;;;;;;;11.80;9.50;;;;;19.60;101249.00;;;;2072727;28;20290;-76
2023/03/02 00:17:36;;;;;;;10.70;9.40;;;;;19.60;101247.00;;;;2072607;28;20211;-76
2023/03/02 00:18:36;;;;;;;10.30;9.07;;;;;19.60;101252.00;;;;2072240;28;20218;-76
2023/03/02 00:19:36;;;;;;;11.67;9.60;;;;;19.60;101245.00;;;;2072005;28;20214;-76
2023/03/02 00:20:37;;;;;;;11.17;8.80;;;;;19.60;101246.00;;;;2072604;28;20217;-76
2023/03/02 00:21:38;;;;;;;10.13;8.80;;;;;19.70;101246.00;;;;2072895;28;20815;-76
2023/03/02 00:22:39;;;;;;;10.37;8.60;;;;;19.60;101252.00;;;;2072828;28;20504;-76
2023/03/02 00:23:39;;;;;;;9.32;8.43;;;;;19.60;101246.00;;;;2070872;28;20569;-76
2023/03/02 00:24:40;;;;;;;10.80;9.00;;;;;19.60;101253.00;;;;2072661;28;20377;-76
2023/03/02 00:25:40;;;;;;;8.97;7.97;;;;;19.60;101252.00;;;;2072795;28;20587;-76
2023/03/02 00:26:43;;;;;;;10.00;8.50;;;;;19.60;101248.00;;;;2072841;28;20717;-76
2023/03/02 00:27:43;;;;;;;9.95;8.15;;;;;19.60;101197.00;;;;2072526;28;20214;-76
2023/03/02 00:28:44;;;;;;;9.37;8.40;;;;;19.60;101258.00;;;;2071522;28;20617;-76
2023/03/02 00:29:44;;;;;;;10.67;8.63;;;;;19.60;101244.00;;;;2071928;28;20683;-77
2023/03/02 00:30:44;;;;;;;9.13;8.17;;;;;19.60;101252.00;;;;2070470;28;20222;-76
2023/03/02 00:31:45;;;;;;;9.37;8.00;;;;;19.60;101246.00;;;;2071873;28;20217;-77
2023/03/02 00:32:45;;;;;;;9.70;7.87;;;;;19.60;101243.00;;;;2072233;28;20347;-76
2023/03/02 00:33:45;;;;;;;10.37;8.60;;;;;19.60;101239.00;;;;2072000;28;20214;-76
2023/03/02 00:34:46;;;;;;;9.77;8.20;;;;;19.50;101238.00;;;;2071816;28;20562;-78
2023/03/02 00:35:46;;;;;;;8.83;7.70;;;;;19.50;101241.00;;;;2072476;28;20218;-77
2023/03/02 00:36:48;;;;;;;8.50;7.10;;;;;19.50;101245.00;;;;2072372;28;20329;-77
2023/03/02 00:37:48;;;;;;;9.00;7.93;;;;;19.50;101238.00;;;;2046811;28;20215;-76
2023/03/02 00:38:50;;;;;;;8.40;7.30;;;;;19.50;101241.00;;;;2036271;28;20241;-76
2023/03/02 00:39:51;;;;;;;8.32;7.10;;;;;19.50;101243.00;;;;2053393;28;20222;-76
2023/03/02 00:40:52;;;;;;;8.87;7.60;;;;;19.50;101242.00;;;;2071715;28;20211;-77
2023/03/02 00:41:52;;;;;;;9.30;7.90;;;;;19.60;101237.00;;;;2071989;28;20813;-77
2023/03/02 00:42:52;;;;;;;12.57;7.93;;;;;19.50;101247.00;;;;2071824;28;20254;-76
2023/03/02 00:43:53;;;;;;;8.87;7.40;;;;;19.50;101244.00;;;;2071847;28;20218;-76
2023/03/02 00:44:53;;;;;;;8.60;7.23;;;;;19.50;101250.00;;;;2071671;28;20210;-76
2023/03/02 00:45:54;;;;;;;9.03;7.50;;;;;19.50;101232.00;;;;2072256;28;20644;-75
2023/03/02 00:46:54;;;;;;;9.07;6.53;;;;;19.50;101220.00;;;;2071752;28;20647;-76
2023/03/02 00:47:54;;;;;;;7.63;6.37;;;;;19.50;101243.00;;;;2061338;28;20238;-76
2023/03/02 00:48:55;;;;;;;7.07;6.37;;;;;19.50;101241.00;;;;2055176;28;20259;-75
2023/03/02 00:49:55;;;;;;;7.47;6.77;;;;;19.50;101227.00;;;;2056108;28;20254;-76
2023/03/02 00:50:55;;;;;;;10.03;7.50;;;;;19.50;101239.00;;;;2054232;28;20378;-76
2023/03/02 00:51:56;;;;;;;9.17;7.50;;;;;19.50;101234.00;;;;2055497;28;20215;-77
2023/03/02 00:52:56;;;;;;;10.77;7.33;;;;;19.50;101216.00;;;;2056193;28;20230;-76
2023/03/02 00:53:56;;;;;;;8.20;6.80;;;;;19.50;101231.00;;;;2055527;28;20219;-77
2023/03/02 00:54:57;;;;;;;6.93;6.23;;;;;19.50;101221.00;;;;2055541;28;20222;-77
2023/03/02 00:55:57;;;;;;;7.30;6.57;;;;;19.50;101232.00;;;;2056221;28;20219;-76
2023/03/02 00:56:57;;;;;;;7.93;6.93;;;;;19.50;101227.00;;;;2055639;28;20282;-77
2023/03/02 00:57:58;;;;;;;7.73;6.70;;;;;19.50;101236.00;;;;2054584;28;20231;-76
2023/03/02 00:59:03;;;;;;;8.73;5.93;;;;;19.50;101231.00;;;;2055363;28;20208;-77
2023/03/02 01:00:04;;;;;;;6.97;6.28;;;;;19.40;101230.00;;;;2056062;28;20227;-76
2023/03/02 01:01:06;;;;;;;7.73;7.03;;;;;19.50;101233.00;;;;2056203;28;20222;-77
2023/03/02 01:02:06;;;;;;;7.60;6.40;;;;;19.50;101223.00;;;;2055448;28;20993;-77
2023/03/02 01:03:07;;;;;;;7.80;6.63;;;;;19.40;101230.00;;;;2047111;28;20246;-77
2023/03/02 01:04:07;;;;;;;7.27;6.47;;;;;19.50;101245.00;;;;2055403;28;21046;-77
2023/03/02 01:05:07;;;;;;;7.40;6.50;;;;;19.40;101232.00;;;;2055790;28;20219;-77
2023/03/02 01:06:13;;;;;;;6.73;6.07;;;;;19.40;101232.00;;;;2056072;28;20710;-77
2023/03/02 01:07:15;;;;;;;6.60;5.97;;;;;19.40;101227.00;;;;2055285;28;20265;-76
2023/03/02 01:08:16;;;;;;;7.35;6.65;;;;;19.40;101215.00;;;;2047386;28;20223;-77
2023/03/02 01:09:16;;;;;;;7.73;6.87;;;;;19.40;101217.00;;;;2046156;28;20596;-77
2023/03/02 01:10:16;;;;;;;7.17;6.20;;;;;19.40;101224.00;;;;2055290;28;20906;-76
2023/03/02 01:11:18;;;;;;;6.33;5.73;;;;;19.40;101224.00;;;;2056038;28;20276;-77
2023/03/02 01:12:19;;;;;;;7.15;6.45;;;;;19.40;101220.00;;;;2056110;28;20219;-76
2023/03/02 01:13:19;;;;;;;8.20;6.47;;;;;19.40;101220.00;;;;2055494;28;20215;-77
2023/03/02 01:14:19;;;;;;;6.83;5.20;;;;;19.40;101227.00;;;;2054540;28;20223;-77
2023/03/02 01:15:20;;;;;;;7.60;6.80;;;;;19.40;101225.00;;;;2055934;28;20211;-77
2023/03/02 01:16:20;;;;;;;7.60;6.47;;;;;19.40;101203.00;;;;2056109;28;20219;-77
2023/03/02 01:17:21;;;;;;;6.57;5.97;;;;;19.40;101219.00;;;;2055990;28;20214;-77
2023/03/02 01:18:21;;;;;;;6.68;5.50;;;;;19.30;101224.00;;;;2054908;28;20217;-77
2023/03/02 01:19:22;;;;;;;7.97;5.03;;;;;19.30;101189.00;;;;2055245;28;20959;-77
2023/03/02 01:20:22;;;;;;;6.70;5.73;;;;;19.30;101225.00;;;;2055364;28;20657;-77
2023/03/02 01:21:23;;;;;;;7.40;6.43;;;;;19.40;101223.00;;;;2054292;28;20295;-79
2023/03/02 01:22:23;;;;;;;6.50;5.80;;;;;19.40;101212.00;;;;2055472;28;20266;-78
2023/03/02 01:23:23;;;;;;;6.20;5.60;;;;;19.40;101213.00;;;;2046538;28;20311;-78
2023/03/02 01:24:24;;;;;;;7.40;6.33;;;;;19.30;101215.00;;;;2055257;28;20223;-78
2023/03/02 01:25:24;;;;;;;8.23;6.57;;;;;19.30;101216.00;;;;2062397;28;20278;-78
2023/03/02 01:26:24;;;;;;;6.03;5.43;;;;;19.30;101195.00;;;;2063345;28;20203;-78
2023/03/02 01:27:25;;;;;;;6.53;5.90;;;;;19.30;101221.00;;;;2047593;28;20576;-78
2023/03/02 01:28:25;;;;;;;6.93;5.37;;;;;19.30;101171.00;;;;2046919;28;20606;-77
2023/03/02 01:29:25;;;;;;;6.80;6.10;;;;;19.30;101217.00;;;;2054260;28;20220;-77
2023/03/02 01:30:26;;;;;;;5.47;4.93;;;;;19.30;101211.00;;;;2046973;28;20228;-76
2023/03/02 01:31:26;;;;;;;6.20;5.23;;;;;19.30;101213.00;;;;2054934;28;20904;-77
2023/03/02 01:32:27;;;;;;;5.97;5.37;;;;;19.30;101215.00;;;;2054801;28;20769;-77
2023/03/02 01:33:27;;;;;;;7.03;5.93;;;;;19.30;101208.00;;;;2055258;28;20222;-76
2023/03/02 01:34:27;;;;;;;5.83;5.33;;;;;19.30;101208.00;;;;2055893;28;20216;-77
2023/03/02 01:35:28;;;;;;;6.37;5.77;;;;;19.30;101195.00;;;;2055822;28;20220;-76
2023/03/02 01:36:28;;;;;;;6.43;5.50;;;;;19.20;101216.00;;;;2055850;28;20258;-76
2023/03/02 01:37:28;;;;;;;5.90;5.40;;;;;19.30;101214.00;;;;2056022;28;20668;-76
2023/03/02 01:38:29;;;;;;;5.90;5.17;;;;;19.30;101214.00;;;;2055468;28;20211;-76
2023/03/02 01:39:29;;;;;;;5.77;5.27;;;;;19.30;101221.00;;;;2055169;28;20204;-76
2023/03/02 01:40:29;;;;;;;6.20;5.50;;;;;19.30;101214.00;;;;2054155;28;20227;-76
2023/03/02 01:41:30;;;;;;;5.93;5.33;;;;;19.30;101221.00;;;;2055855;28;20220;-76
2023/03/02 01:42:36;;;;;;;6.17;5.57;;;;;19.30;101214.00;;;;2055945;28;20258;-76
2023/03/02 01:43:36;;;;;;;5.70;5.10;;;;;19.30;101214.00;;;;2055838;28;20222;-76
2023/03/02 01:44:41;;;;;;;6.43;5.70;;;;;19.30;101207.00;;;;2055879;28;20218;-77
2023/03/02 01:45:50;;;;;;;6.68;5.75;;;;;19.30;101209.00;;;;2055592;28;20218;-76
2023/03/02 01:46:50;;;;;;;5.50;4.95;;;;;19.30;101157.00;;;;2055673;28;20208;-76
2023/03/02 01:47:51;;;;;;;5.60;5.00;;;;;19.30;101216.00;;;;2050038;28;20817;-76
2023/03/02 01:49:02;;;;;;;6.57;5.67;;;;;19.30;101207.00;;;;2054935;28;20220;-76
2023/03/02 01:50:20;;;;;;;5.95;5.07;;;;;19.30;101211.00;;;;2064430;28;20219;-77
2023/03/02 01:51:21;;;;;;;5.57;5.07;;;;;19.20;101118.00;;;;2065385;28;20215;-76
2023/03/02 01:52:22;;;;;;;5.80;5.20;;;;;19.20;101217.00;;;;2071224;28;20214;-76
2023/03/02 01:53:24;;;;;;;6.20;5.60;;;;;19.20;101165.00;;;;2070924;28;20210;-76
2023/03/02 01:54:25;;;;;;;5.53;4.97;;;;;19.20;101224.00;;;;2070833;28;20476;-76
2023/03/02 01:55:25;;;;;;;5.40;4.90;;;;;19.20;101224.00;;;;2070735;28;20224;-77
2023/03/02 01:56:33;;;;;;;5.67;5.20;;;;;19.20;101215.00;;;;2070561;28;20217;-76
2023/03/02 01:57:42;;;;;;;5.57;4.97;;;;;19.20;101207.00;;;;2070297;28;20559;-77
2023/03/02 01:58:42;;;;;;;6.47;5.03;;;;;19.20;101221.00;;;;2070074;28;20689;-77
2023/03/02 01:59:42;;;;;;;5.80;5.20;;;;;19.20;101212.00;;;;2070737;28;20222;-77
2023/03/02 02:00:43;;;;;;;5.40;4.90;;;;;19.20;101211.00;;;;2070769;28;20213;-76
2023/03/02 02:01:44;;;;;;;5.80;5.13;;;;;19.20;101212.00;;;;2071431;28;20229;-77
2023/03/02 02:02:44;;;;;;;5.45;4.95;;;;;19.20;101209.00;;;;2071283;28;20237;-76
2023/03/02 02:03:47;;;;;;;5.13;4.70;;;;;19.20;101205.00;;;;2070611;28;20229;-76
2023/03/02 02:04:47;;;;;;;6.68;5.47;;;;;19.20;101209.00;;;;2070456;28;20229;-77
2023/03/02 02:06:10;;;;;;;5.43;4.83;;;;;19.20;101207.00;;;;2070750;28;20225;-77
2023/03/02 02:07:11;;;;;;;4.95;4.45;;;;;19.20;101174.00;;;;2070344;28;20614;-76
2023/03/02 02:08:11;;;;;;;5.47;4.97;;;;;19.20;101209.00;;;;2070319;28;20213;-76
2023/03/02 02:09:13;;;;;;;5.87;4.97;;;;;19.20;101157.00;;;;2071325;28;20232;-76
2023/03/02 02:10:13;;;;;;;5.82;5.00;;;;;19.20;101199.00;;;;2070840;28;20217;-77
2023/03/02 02:11:14;;;;;;;4.83;4.43;;;;;19.20;101194.00;;;;2070855;28;20264;-76
2023/03/02 02:12:15;;;;;;;5.90;5.20;;;;;19.20;101207.00;;;;2071363;28;20277;-76
2023/03/02 02:13:15;;;;;;;6.15;4.95;;;;;19.20;101202.00;;;;2071626;28;20214;-76
2023/03/02 02:14:16;;;;;;;7.07;4.80;;;;;19.10;101195.00;;;;2071902;28;20225;-76
2023/03/02 02:15:16;;;;;;;5.77;5.17;;;;;19.10;101195.00;;;;2071548;28;20202;-76
2023/03/02 02:16:17;;;;;;;6.07;5.47;;;;;19.20;101195.00;;;;2071154;28;20218;-76
2023/03/02 02:17:17;;;;;;;5.47;4.50;;;;;19.20;101200.00;;;;2069428;28;20352;-76
2023/03/02 02:18:17;;;;;;;6.77;4.70;;;;;19.20;101191.00;;;;2070572;28;20256;-77
2023/03/02 02:19:33;;;;;;;5.30;4.70;;;;;19.20;101183.00;;;;2070214;28;20316;-77
2023/03/02 02:20:38;;;;;;;6.22;4.68;;;;;19.10;101219.00;;;;2052897;28;20225;-78
2023/03/02 02:21:38;;;;;;;5.40;4.90;;;;;19.10;101187.00;;;;2063719;28;20722;-76
2023/03/02 02:23:12;;;;;;;4.77;4.27;;;;;19.10;101183.00;;;;2062890;28;20207;-77
2023/03/02 02:24:20;;;;;;;5.43;4.88;;;;;19.10;101185.00;;;;2066567;28;20214;-77
2023/03/02 02:25:29;;;;;;;5.35;4.85;;;;;19.10;101180.00;;;;2071006;28;20221;-77
2023/03/02 02:26:33;;;;;;;5.18;4.43;;;;;19.10;101179.00;;;;2071059;28;20721;-76
2023/03/02 02:27:34;;;;;;;5.25;4.70;;;;;19.10;101180.00;;;;2069525;28;20213;-76
2023/03/02 02:28:56;;;;;;;5.57;4.93;;;;;19.10;101183.00;;;;2070438;28;20221;-77
2023/03/02 02:29:57;;;;;;;4.80;4.30;;;;;19.10;101190.00;;;;2070830;28;20548;-76
2023/03/02 02:31:15;;;;;;;5.07;4.57;;;;;19.10;101170.00;;;;2063319;28;20225;-77
2023/03/02 02:32:17;;;;;;;5.60;4.75;;;;;19.10;101148.00;;;;2071645;28;20221;-77
2023/03/02 02:33:19;;;;;;;5.97;4.85;;;;;19.10;101155.00;;;;2055801;28;20678;-76
2023/03/02 02:34:34;;;;;;;5.40;4.30;;;;;19.10;101176.00;;;;2053812;28;20679;-76
2023/03/02 02:35:37;;;;;;;5.72;4.90;;;;;19.10;101179.00;;;;2058657;28;20219;-76
2023/03/02 02:36:39;;;;;;;6.25;4.07;;;;;19.10;101153.00;;;;2062638;28;20586;-76
2023/03/02 02:37:40;;;;;;;4.95;4.45;;;;;19.10;101168.00;;;;2070557;28;20245;-75
2023/03/02 02:38:40;;;;;;;5.72;4.90;;;;;19.10;101169.00;;;;2070159;28;20326;-76
2023/03/02 02:39:43;;;;;;;5.13;4.63;;;;;19.10;101148.00;;;;2070562;28;20290;-75
2023/03/02 02:40:47;;;;;;;5.65;4.75;;;;;19.10;101164.00;;;;2069963;28;20228;-76
2023/03/02 02:41:48;;;;;;;5.20;4.70;;;;;19.00;101156.00;;;;2046644;28;20270;-76
2023/03/02 02:42:49;;;;;;;4.70;4.30;;;;;19.00;101170.00;;;;2046785;28;20227;-75
2023/03/02 02:43:49;;;;;;;4.70;4.30;;;;;19.10;101152.00;;;;2046560;28;21005;-75
2023/03/02 02:44:50;;;;;;;5.23;4.73;;;;;19.00;101159.00;;;;2062833;28;20534;-76
2023/03/02 02:45:52;;;;;;;5.07;4.57;;;;;19.00;101163.00;;;;2054786;28;20219;-75
2023/03/02 02:46:52;;;;;;;4.75;4.35;;;;;19.00;101136.00;;;;2047960;28;20437;-76
2023/03/02 02:47:53;;;;;;;4.57;4.17;;;;;19.00;101154.00;;;;2053352;28;20707;-76
2023/03/02 02:48:53;;;;;;;6.07;4.73;;;;;19.10;101162.00;;;;2039164;29;20225;-76
2023/03/02 02:49:54;;;;;;;4.90;4.50;;;;;19.00;101163.00;;;;2047121;28;20802;-76
2023/03/02 02:50:59;;;;;;;5.00;4.53;;;;;19.00;101154.00;;;;2055076;28;20714;-76
2023/03/02 02:51:59;;;;;;;5.00;4.60;;;;;19.00;101038.00;;;;2055328;28;20226;-76
2023/03/02 02:53:01;;;;;;;5.10;4.60;;;;;19.00;101161.00;;;;2055666;28;20215;-76
2023/03/02 02:54:02;;;;;;;4.97;4.47;;;;;19.00;101157.00;;;;2046602;28;20223;-76
2023/03/02 02:55:02;;;;;;;6.07;4.67;;;;;19.00;101159.00;;;;2046927;28;20315;-76
2023/03/02 02:56:03;;;;;;;4.63;4.20;;;;;19.00;101156.00;;;;2038782;29;20563;-76
2023/03/02 02:57:04;;;;;;;4.93;4.37;;;;;19.00;101161.00;;;;2023164;29;20249;-76
2023/03/02 02:58:28;;;;;;;4.73;4.33;;;;;19.00;101161.00;;;;2046423;28;20215;-76
2023/03/02 02:59:32;;;;;;;4.70;4.30;;;;;19.00;101163.00;;;;2049174;28;20301;-76
2023/03/02 03:00:32;;;;;;;4.65;4.25;;;;;19.00;101160.00;;;;2046795;28;20215;-76
2023/03/02 03:01:32;;;;;;;5.10;4.60;;;;;19.00;101164.00;;;;2046814;28;20224;-76
2023/03/02 03:02:36;;;;;;;4.87;4.37;;;;;19.00;101169.00;;;;2055224;28;20261;-76
2023/03/02 03:03:36;;;;;;;4.30;3.90;;;;;19.00;101166.00;;;;2054717;28;20219;-76
2023/03/02 03:04:37;;;;;;;4.13;3.80;;;;;19.00;101164.00;;;;2054364;28;20686;-76
2023/03/02 03:05:38;;;;;;;4.97;4.33;;;;;19.00;101167.00;;;;2046471;28;21062;-77
2023/03/02 03:06:41;;;;;;;5.00;4.60;;;;;19.00;101164.00;;;;2046677;28;20487;-76
2023/03/02 03:07:41;;;;;;;5.18;4.68;;;;;19.00;101166.00;;;;2046258;28;20211;-76
2023/03/02 03:08:44;;;;;;;6.50;4.20;;;;;19.00;101165.00;;;;2046551;28;20208;-76
2023/03/02 03:09:47;;;;;;;4.45;4.05;;;;;19.00;101143.00;;;;2055111;28;20234;-76
2023/03/02 03:10:48;;;;;;;6.88;4.35;;;;;19.00;101162.00;;;;2046535;28;20220;-76
2023/03/02 03:11:55;;;;;;;4.60;4.20;;;;;19.00;101164.00;;;;2038056;29;20770;-76
2023/03/02 03:12:55;;;;;;;4.93;4.45;;;;;19.00;101162.00;;;;2047570;28;20312;-76
2023/03/02 03:14:05;;;;;;;4.80;4.30;;;;;19.00;101166.00;;;;2046701;28;20841;-75
2023/03/02 03:15:05;;;;;;;4.95;4.05;;;;;19.00;101161.00;;;;2054599;28;20756;-76
2023/03/02 03:16:06;;;;;;;6.40;4.40;;;;;19.00;101159.00;;;;2054055;28;20545;-76
2023/03/02 03:17:11;;;;;;;5.68;4.43;;;;;19.00;101150.00;;;;2054562;28;20219;-75
2023/03/02 03:18:12;;;;;;;5.60;5.10;;;;;19.00;101164.00;;;;2053936;28;20211;-75
2023/03/02 03:19:22;;;;;;;4.97;4.40;;;;;19.00;101162.00;;;;2054460;28;20218;-75
2023/03/02 03:20:23;;;;;;;4.88;4.15;;;;;19.00;101161.00;;;;2054718;28;20233;-75
2023/03/02 03:21:23;;;;;;;4.30;3.90;;;;;18.90;101160.00;;;;2054525;28;20248;-76
2023/03/02 03:22:23;;;;;;;4.83;4.40;;;;;18.90;101162.00;;;;2054623;28;20457;-75
2023/03/02 03:23:24;;;;;;;4.97;4.47;;;;;18.90;101163.00;;;;2055368;28;20207;-76
2023/03/02 03:24:25;;;;;;;5.77;5.23;;;;;18.90;101159.00;;;;2055145;28;20219;-76
2023/03/02 03:25:26;;;;;;;4.82;4.15;;;;;18.90;101155.00;;;;2055114;28;20898;-75
2023/03/02 03:26:27;;;;;;;4.90;4.20;;;;;18.90;101173.00;;;;2054382;28;20234;-76
2023/03/02 03:27:27;;;;;;;4.77;4.23;;;;;18.90;101163.00;;;;2054438;28;20663;-76
2023/03/02 03:28:27;;;;;;;4.63;4.20;;;;;18.90;101154.00;;;;2054552;28;20212;-77
2023/03/02 03:29:28;;;;;;;5.70;4.77;;;;;18.90;101164.00;;;;2055093;28;20223;-76
2023/03/02 03:30:29;;;;;;;4.80;4.00;;;;;19.00;101162.00;;;;2062239;28;20206;-76
2023/03/02 03:31:29;;;;;;;4.50;4.10;;;;;18.90;101168.00;;;;2062516;28;20545;-76
2023/03/02 03:32:33;;;;;;;4.73;4.33;;;;;18.90;101154.00;;;;2053179;28;20776;-76
2023/03/02 03:33:33;;;;;;;4.68;4.07;;;;;18.90;101155.00;;;;2054262;28;20226;-76
2023/03/02 03:34:39;;;;;;;4.23;3.83;;;;;18.90;101160.00;;;;2055052;28;20210;-76
2023/03/02 03:35:39;;;;;;;4.40;4.00;;;;;18.90;101159.00;;;;2055022;28;20219;-76
2023/03/02 03:36:42;;;;;;;4.07;3.67;;;;;18.90;101162.00;;;;2055023;28;20215;-76
2023/03/02 03:37:42;;;;;;;4.03;3.72;;;;;18.90;101161.00;;;;2054885;28;20227;-76
2023/03/02 03:38:42;;;;;;;5.17;4.40;;;;;18.90;101164.00;;;;2054285;28;20219;-76
2023/03/02 03:39:43;;;;;;;5.83;4.43;;;;;18.90;101164.00;;;;2054371;28;20230;-77
2023/03/02 03:40:44;;;;;;;5.13;4.33;;;;;18.90;101166.00;;;;2054804;28;20215;-75
2023/03/02 03:41:44;;;;;;;4.90;4.40;;;;;18.90;101168.00;;;;2054939;28;20497;-75
2023/03/02 03:42:45;;;;;;;4.60;4.20;;;;;18.90;101169.00;;;;2055078;28;20215;-75
2023/03/02 03:43:45;;;;;;;4.75;4.35;;;;;18.90;101168.00;;;;2054868;28;20235;-75
2023/03/02 03:44:46;;;;;;;5.30;4.33;;;;;18.90;101164.00;;;;2055060;28;20318;-76
2023/03/02 03:45:46;;;;;;;5.83;4.50;;;;;18.90;101060.00;;;;2054959;28;20211;-75
2023/03/02 03:46:46;;;;;;;4.40;4.00;;;;;18.90;101169.00;;;;2054874;28;20223;-75
2023/03/02 03:47:47;;;;;;;5.03;4.57;;;;;18.90;101164.00;;;;2056960;28;20690;-75
2023/03/02 03:48:47;;;;;;;6.27;5.03;;;;;18.90;101173.00;;;;2069784;28;20646;-76
2023/03/02 03:49:47;;;;;;;4.67;4.10;;;;;18.90;101172.00;;;;2070190;28;20222;-76
2023/03/02 03:50:48;;;;;;;4.67;4.27;;;;;18.80;101160.00;;;;2069900;28;20244;-76
2023/03/02 03:51:48;;;;;;;4.57;4.17;;;;;18.80;101177.00;;;;2070343;28;20224;-75
2023/03/02 03:52:48;;;;;;;4.87;4.37;;;;;18.90;101168.00;;;;2070549;28;20214;-76
2023/03/02 03:53:58;;;;;;;4.50;4.10;;;;;18.90;101174.00;;;;2070423;28;20245;-76
2023/03/02 03:54:59;;;;;;;4.65;4.15;;;;;18.80;101170.00;;;;2070452;28;20218;-76
2023/03/02 03:56:00;;;;;;;5.03;4.53;;;;;18.80;101168.00;;;;2070261;28;20219;-77
2023/03/02 03:57:00;;;;;;;4.80;4.30;;;;;18.80;101176.00;;;;2071007;28;20214;-77
2023/03/02 03:58:00;;;;;;;4.80;4.40;;;;;18.80;101176.00;;;;2070631;28;20245;-77
2023/03/02 03:59:07;;;;;;;4.93;4.33;;;;;18.80;101175.00;;;;2070608;28;20221;-76
2023/03/02 04:00:09;;;;;;;4.93;4.43;;;;;18.80;101168.00;;;;2070422;28;20224;-76
2023/03/02 04:01:10;;;;;;;4.20;3.80;;;;;18.80;101166.00;;;;2062554;28;20214;-76
2023/03/02 04:02:10;;;;;;;4.67;4.27;;;;;18.80;101143.00;;;;2069295;28;20366;-77
2023/03/02 04:03:11;;;;;;;5.47;4.20;;;;;18.80;101171.00;;;;2069633;28;20579;-77
2023/03/02 04:04:17;;;;;;;4.73;4.20;;;;;18.80;101169.00;;;;2070267;28;20228;-77
2023/03/02 04:05:18;;;;;;;4.82;4.43;;;;;18.80;101174.00;;;;2070014;28;20225;-75
2023/03/02 04:06:18;;;;;;;4.43;4.03;;;;;18.80;101166.00;;;;2070592;28;20217;-76
2023/03/02 04:07:18;;;;;;;4.73;4.07;;;;;18.80;101168.00;;;;2070659;28;20221;-75
2023/03/02 04:08:19;;;;;;;5.43;3.70;;;;;18.80;101165.00;;;;2070259;28;20238;-75
2023/03/02 04:09:20;;;;;;;5.03;4.17;;;;;18.80;101169.00;;;;2070699;28;20225;-75
2023/03/02 04:10:20;;;;;;;4.20;3.80;;;;;18.80;101164.00;;;;2070863;28;20218;-76
2023/03/02 04:11:21;;;;;;;4.70;3.90;;;;;18.80;101164.00;;;;2070099;28;20220;-76
2023/03/02 04:12:21;;;;;;;4.73;3.70;;;;;18.80;101164.00;;;;2070175;28;20228;-76
2023/03/02 04:13:21;;;;;;;4.57;4.17;;;;;18.80;101163.00;;;;2070820;28;20225;-75
2023/03/02 04:14:22;;;;;;;4.73;4.17;;;;;18.80;101164.00;;;;2071032;28;20238;-76
2023/03/02 04:15:22;;;;;;;5.03;4.53;;;;;18.80;101166.00;;;;2071152;28;20221;-76
2023/03/02 04:16:23;;;;;;;5.27;4.27;;;;;18.80;101168.00;;;;2070805;28;20241;-76
2023/03/02 04:17:23;;;;;;;4.87;4.07;;;;;18.80;101170.00;;;;2071003;28;20709;-76
2023/03/02 04:18:23;;;;;;;4.87;4.40;;;;;18.80;101157.00;;;;2070804;28;20664;-76
2023/03/02 04:19:24;;;;;;;4.57;4.17;;;;;18.80;101173.00;;;;2070921;28;20207;-76
2023/03/02 04:20:24;;;;;;;4.83;4.33;;;;;18.80;101169.00;;;;2071099;28;20221;-77
2023/03/02 04:21:25;;;;;;;4.20;3.90;;;;;18.80;101169.00;;;;2070193;28;20260;-77
2023/03/02 04:22:25;;;;;;;4.37;3.97;;;;;18.70;101168.00;;;;2070331;28;20210;-77
2023/03/02 04:23:26;;;;;;;4.87;4.07;;;;;18.80;101172.00;;;;2070399;28;20799;-77
2023/03/02 04:24:26;;;;;;;6.13;4.20;;;;;18.70;101131.00;;;;2070781;28;20210;-77
2023/03/02 04:25:27;;;;;;;4.27;3.60;;;;;18.70;101164.00;;;;2070837;28;20221;-73
2023/03/02 04:26:28;;;;;;;11.98;4.25;;;;;18.70;101172.00;;;;2069808;28;20227;-75
2023/03/02 04:27:28;;;;;;;6.93;3.97;;;;;18.70;101173.00;;;;2070206;28;20258;-74
2023/03/02 04:28:28;;;;;;;4.53;3.97;;;;;18.80;101169.00;;;;2070730;28;20214;-77
2023/03/02 04:29:31;;;;;;;4.53;4.13;;;;;18.80;101170.00;;;;2070883;28;20232;-81
2023/03/02 04:30:32;;;;;;;7.85;4.32;;;;;18.60;101166.00;;;;2070972;28;20296;-79
2023/03/02 04:31:32;;;;;;;5.13;3.77;;;;;18.70;101167.00;;;;2070442;28;20206;-77
2023/03/02 04:32:32;;;;;;;5.60;4.03;;;;;18.80;101164.00;;;;2070346;28;20469;-72
2023/03/02 04:33:33;;;;;;;4.83;4.10;;;;;18.80;101158.00;;;;2072488;28;20232;-74
2023/03/02 04:34:33;;;;;;;5.13;4.13;;;;;18.80;101164.00;;;;2070552;28;20308;-77
2023/03/02 04:35:33;;;;;;;4.87;4.00;;;;;18.80;101169.00;;;;2071599;28;20701;-74
2023/03/02 04:36:35;;;;;;;4.33;3.93;;;;;18.80;101156.00;;;;2071832;28;20747;-75
2023/03/02 04:37:36;;;;;;;5.18;4.65;;;;;18.80;101164.00;;;;2071637;28;20307;-73
2023/03/02 04:38:36;;;;;;;6.43;3.80;;;;;18.80;101160.00;;;;2071509;28;20215;-74
2023/03/02 04:39:37;;;;;;;4.50;4.10;;;;;18.80;101169.00;;;;2072355;28;20461;-75
2023/03/02 04:40:37;;;;;;;4.63;4.20;;;;;18.80;101170.00;;;;2072152;28;20210;-75
2023/03/02 04:41:37;;;;;;;5.80;3.83;;;;;18.80;101156.00;;;;2072074;28;20210;-76
2023/03/02 04:42:38;;;;;;;8.33;4.40;;;;;18.80;101163.00;;;;2071556;28;20206;-76
2023/03/02 04:43:38;;;;;;;5.80;4.13;;;;;18.80;101160.00;;;;2071702;28;20219;-76
2023/03/02 04:44:38;;;;;;;6.07;3.80;;;;;18.80;101154.00;;;;2072399;28;20218;-76
2023/03/02 04:45:39;;;;;;;5.10;3.97;;;;;18.80;101162.00;;;;2071581;28;20232;-76
2023/03/02 04:46:39;;;;;;;5.87;4.30;;;;;18.80;101159.00;;;;2063277;28;20214;-76
2023/03/02 04:47:40;;;;;;;4.97;4.50;;;;;18.80;101160.00;;;;2071409;28;20271;-77
2023/03/02 04:48:40;;;;;;;5.00;4.50;;;;;18.80;101160.00;;;;2063141;28;20218;-76
2023/03/02 04:49:40;;;;;;;5.00;4.13;;;;;18.80;101167.00;;;;2063991;28;20740;-76
2023/03/02 04:50:41;;;;;;;7.43;4.97;;;;;18.70;101164.00;;;;2062728;28;20225;-76
2023/03/02 04:51:42;;;;;;;6.30;4.10;;;;;18.70;101165.00;;;;2064077;28;20305;-77
2023/03/02 04:52:43;;;;;;;4.80;4.15;;;;;18.70;101145.00;;;;2063447;28;20305;-77
2023/03/02 04:53:43;;;;;;;4.23;3.70;;;;;18.70;101167.00;;;;2063442;28;20218;-77
2023/03/02 04:54:43;;;;;;;6.00;3.93;;;;;18.70;101167.00;;;;2064029;28;20225;-76
2023/03/02 04:55:44;;;;;;;5.70;3.83;;;;;18.70;101165.00;;;;2063332;28;20692;-77
2023/03/02 04:56:47;;;;;;;4.67;3.70;;;;;18.70;101162.00;;;;2063244;28;20717;-77
2023/03/02 04:57:47;;;;;;;6.32;3.90;;;;;18.70;101169.00;;;;2063266;28;20237;-76
2023/03/02 04:58:47;;;;;;;4.90;4.13;;;;;18.70;101164.00;;;;2063236;28;20226;-77
2023/03/02 04:59:48;;;;;;;5.20;4.03;;;;;18.70;101118.00;;;;2064090;28;20261;-77
2023/03/02 05:00:48;;;;;;;4.53;3.73;;;;;18.70;101151.00;;;;2063550;28;20222;-78
2023/03/02 05:01:49;;;;;;;4.73;3.63;;;;;18.70;101163.00;;;;2063443;28;20220;-77
2023/03/02 05:02:49;;;;;;;4.43;3.90;;;;;18.60;101094.00;;;;2063284;28;20218;-77
2023/03/02 05:03:50;;;;;;;4.33;3.93;;;;;18.60;101163.00;;;;2063440;28;20347;-76